Time;durP1;ratioP1;P1;durP2;ratioP2;P2;SDS_P1;SDS_P2;PMS_P1;PMS_P2;Temp;Humidity;BMP_temperature;BMP_pressure;BME280_temperature;BME280_humidity;BME280_pressure;Samples;Min_cycle;Max_cycle;Signal;HPM_P1;HPM_P2
2023/09/10 00:02:18;;;;;;;14.30;10.10;;;;;;;;;;7368701;19;20006;-68
2023/09/10 00:04:43;;;;;;;14.40;10.10;;;;;;;;;;7368431;19;20022;-68
2023/09/10 00:07:08;;;;;;;15.52;10.55;;;;;;;;;;7389376;19;20139;-69
2023/09/10 00:09:33;;;;;;;16.98;10.77;;;;;;;;;;7365523;19;20027;-69
2023/09/10 00:11:59;;;;;;;15.00;10.80;;;;;;;;;;7367161;19;20035;-68
2023/09/10 00:14:24;;;;;;;17.60;12.00;;;;;;;;;;7368104;19;20143;-69
2023/09/10 00:16:49;;;;;;;16.80;11.35;;;;;;;;;;7369272;19;20583;-68
2023/09/10 00:19:15;;;;;;;16.02;11.88;;;;;;;;;;7391111;19;20002;-68
2023/09/10 00:21:41;;;;;;;17.45;11.95;;;;;;;;;;7368878;19;20342;-68
2023/09/10 00:24:08;;;;;;;21.13;12.60;;;;;;;;;;7371976;19;20014;-68
2023/09/10 00:26:34;;;;;;;17.70;11.93;;;;;;;;;;7370462;19;20034;-69
2023/09/10 00:28:59;;;;;;;18.20;12.20;;;;;;;;;;7370230;19;19998;-69
2023/09/10 00:31:25;;;;;;;20.58;12.82;;;;;;;;;;7390868;19;20079;-70
2023/09/10 00:33:50;;;;;;;17.42;11.88;;;;;;;;;;7370592;19;20111;-67
2023/09/10 00:36:15;;;;;;;15.85;11.60;;;;;;;;;;7371379;19;20014;-69
2023/09/10 00:38:40;;;;;;;18.48;11.55;;;;;;;;;;7371167;19;20009;-67
2023/09/10 00:41:07;;;;;;;16.45;10.52;;;;;;;;;;7369835;19;20019;-69
2023/09/10 00:43:33;;;;;;;14.55;11.20;;;;;;;;;;7389109;19;20006;-70
2023/09/10 00:45:59;;;;;;;12.63;9.48;;;;;;;;;;7370028;19;20002;-69
2023/09/10 00:48:24;;;;;;;16.88;10.38;;;;;;;;;;7369742;19;19998;-68
2023/09/10 00:50:50;;;;;;;14.18;10.35;;;;;;;;;;7370619;19;20006;-67
2023/09/10 00:53:17;;;;;;;14.32;10.18;;;;;;;;;;7368107;19;19998;-68
2023/09/10 00:55:43;;;;;;;16.65;10.60;;;;;;;;;;7371307;19;20345;-68
2023/09/10 00:58:08;;;;;;;13.07;10.13;;;;;;;;;;7391529;19;19998;-68
2023/09/10 01:00:34;;;;;;;14.13;10.07;;;;;;;;;;7369765;19;20009;-68
2023/09/10 01:02:59;;;;;;;13.65;9.88;;;;;;;;;;7368553;19;20099;-67
2023/09/10 01:05:25;;;;;;;16.73;10.63;;;;;;;;;;7369959;19;20010;-68
2023/09/10 01:07:50;;;;;;;14.52;9.82;;;;;;;;;;7369502;19;20386;-68
2023/09/10 01:10:16;;;;;;;16.70;9.65;;;;;;;;;;7389552;19;20022;-68
2023/09/10 01:12:58;;;;;;;13.13;9.98;;;;;;;;;;7366993;19;20330;-69
2023/09/10 01:15:32;;;;;;;15.13;10.52;;;;;;;;;;7370134;19;20217;-68
2023/09/10 01:18:01;;;;;;;17.23;10.30;;;;;;;;;;7370050;19;20006;-68
2023/09/10 01:21:04;;;;;;;15.65;10.05;;;;;;;;;;7368733;19;20006;-67
2023/09/10 01:23:42;;;;;;;16.33;11.27;;;;;;;;;;7364108;19;20010;-68
2023/09/10 01:26:08;;;;;;;15.30;10.50;;;;;;;;;;7368596;19;20010;-68
2023/09/10 01:28:33;;;;;;;17.55;10.75;;;;;;;;;;7389946;19;20027;-68
2023/09/10 01:30:58;;;;;;;13.45;10.75;;;;;;;;;;7369233;19;20042;-69
2023/09/10 01:33:36;;;;;;;14.07;10.52;;;;;;;;;;7367582;19;20019;-68
2023/09/10 01:36:25;;;;;;;15.13;11.13;;;;;;;;;;7368912;19;20030;-68
2023/09/10 01:38:59;;;;;;;17.30;11.00;;;;;;;;;;7368952;19;20794;-68
2023/09/10 01:41:26;;;;;;;20.13;12.40;;;;;;;;;;7367571;19;20470;-68
2023/09/10 01:43:53;;;;;;;16.95;11.93;;;;;;;;;;7366752;19;20002;-68
2023/09/10 01:46:19;;;;;;;15.38;11.07;;;;;;;;;;7389446;19;20048;-68
2023/09/10 01:48:45;;;;;;;18.63;12.70;;;;;;;;;;7367639;19;20010;-68
2023/09/10 01:51:11;;;;;;;17.65;12.02;;;;;;;;;;7368074;19;20394;-69
2023/09/10 01:53:36;;;;;;;16.98;12.18;;;;;;;;;;7366575;19;20013;-69
2023/09/10 01:56:02;;;;;;;17.23;12.45;;;;;;;;;;7369250;19;20102;-69
2023/09/10 01:58:27;;;;;;;20.65;11.65;;;;;;;;;;7390223;19;20007;-69
2023/09/10 02:00:52;;;;;;;16.38;11.82;;;;;;;;;;7367079;19;20510;-69
2023/09/10 02:03:18;;;;;;;17.00;11.48;;;;;;;;;;7367321;19;20017;-69
2023/09/10 02:05:44;;;;;;;19.48;10.90;;;;;;;;;;7368609;19;20077;-68
2023/09/10 02:08:09;;;;;;;19.00;12.23;;;;;;;;;;7368401;19;20010;-68
2023/09/10 02:10:35;;;;;;;15.82;11.40;;;;;;;;;;7387494;19;20099;-68
2023/09/10 02:13:00;;;;;;;19.98;10.57;;;;;;;;;;7364803;19;20487;-68
2023/09/10 02:15:26;;;;;;;16.98;10.80;;;;;;;;;;7367416;19;20096;-68
2023/09/10 02:17:54;;;;;;;16.02;10.35;;;;;;;;;;7368554;19;20472;-68
2023/09/10 02:20:20;;;;;;;14.77;10.30;;;;;;;;;;7368206;19;20391;-68
2023/09/10 02:22:45;;;;;;;14.43;10.07;;;;;;;;;;7366972;19;20005;-68
2023/09/10 02:25:11;;;;;;;16.92;11.00;;;;;;;;;;7389743;19;20006;-68
2023/09/10 02:27:37;;;;;;;17.33;10.70;;;;;;;;;;7367343;19;20010;-68
2023/09/10 02:30:07;;;;;;;14.82;10.77;;;;;;;;;;7367913;19;20016;-68
2023/09/10 02:32:32;;;;;;;16.83;11.18;;;;;;;;;;7366733;19;20002;-69
2023/09/10 02:34:58;;;;;;;14.55;9.98;;;;;;;;;;7367519;19;20393;-68
2023/09/10 02:37:23;;;;;;;17.73;10.70;;;;;;;;;;7388685;19;20009;-68
2023/09/10 02:39:48;;;;;;;14.43;10.25;;;;;;;;;;7366887;19;20018;-68
2023/09/10 02:42:14;;;;;;;18.63;10.45;;;;;;;;;;7365989;19;20018;-68
2023/09/10 02:44:39;;;;;;;15.13;9.27;;;;;;;;;;7367441;19;20002;-68
2023/09/10 02:47:04;;;;;;;15.10;10.02;;;;;;;;;;7367657;19;20007;-68
2023/09/10 02:49:30;;;;;;;16.45;10.55;;;;;;;;;;7387977;19;20417;-68
2023/09/10 02:51:55;;;;;;;16.40;10.25;;;;;;;;;;7365770;19;20074;-68
2023/09/10 02:54:21;;;;;;;15.90;10.85;;;;;;;;;;7366961;19;20093;-68
2023/09/10 02:56:47;;;;;;;16.95;10.45;;;;;;;;;;7367045;19;20010;-68
2023/09/10 02:59:24;;;;;;;15.77;10.63;;;;;;;;;;7367075;19;20009;-68
2023/09/10 03:01:49;;;;;;;15.05;10.52;;;;;;;;;;7365090;19;20585;-68
2023/09/10 03:04:15;;;;;;;13.65;9.65;;;;;;;;;;7387893;19;20093;-68
2023/09/10 03:06:43;;;;;;;16.92;9.95;;;;;;;;;;7366250;19;20012;-68
2023/09/10 03:09:09;;;;;;;18.35;11.40;;;;;;;;;;7365738;19;20469;-68
2023/09/10 03:11:37;;;;;;;15.05;10.85;;;;;;;;;;7365079;19;20011;-68
2023/09/10 03:14:03;;;;;;;16.38;11.50;;;;;;;;;;7366994;19;20006;-68
2023/09/10 03:16:28;;;;;;;21.35;12.25;;;;;;;;;;7386429;19;20066;-68
2023/09/10 03:18:53;;;;;;;17.05;11.63;;;;;;;;;;7365879;19;20012;-68
2023/09/10 03:21:20;;;;;;;22.27;11.77;;;;;;;;;;7362220;19;20014;-68
2023/09/10 03:23:45;;;;;;;19.25;10.90;;;;;;;;;;7361772;19;20018;-69
2023/09/10 03:26:14;;;;;;;21.05;10.80;;;;;;;;;;7370370;19;20049;-68
2023/09/10 03:28:40;;;;;;;18.45;11.15;;;;;;;;;;7391713;19;20011;-68
2023/09/10 03:31:06;;;;;;;17.58;11.05;;;;;;;;;;7373255;19;20009;-67
2023/09/10 03:33:31;;;;;;;15.55;10.70;;;;;;;;;;7368347;19;20597;-68
2023/09/10 03:35:56;;;;;;;15.25;10.25;;;;;;;;;;7372209;19;20113;-67
2023/09/10 03:38:22;;;;;;;19.60;11.48;;;;;;;;;;7372563;19;20023;-67
2023/09/10 03:40:47;;;;;;;16.85;12.07;;;;;;;;;;7372240;19;20061;-68
2023/09/10 03:43:13;;;;;;;19.52;11.15;;;;;;;;;;7391033;19;20002;-67
2023/09/10 03:45:39;;;;;;;15.57;11.15;;;;;;;;;;7371502;19;20033;-67
2023/09/10 03:48:04;;;;;;;16.13;10.25;;;;;;;;;;7372553;19;20006;-68
2023/09/10 03:50:29;;;;;;;16.17;11.05;;;;;;;;;;7371098;19;20396;-67
2023/09/10 03:52:55;;;;;;;19.00;11.43;;;;;;;;;;7369556;19;20074;-68
2023/09/10 03:55:20;;;;;;;18.77;11.18;;;;;;;;;;7391152;19;20081;-68
2023/09/10 03:57:45;;;;;;;16.65;10.48;;;;;;;;;;7367940;19;20010;-67
2023/09/10 04:00:11;;;;;;;14.38;10.55;;;;;;;;;;7369687;19;20067;-68
2023/09/10 04:02:37;;;;;;;18.02;10.55;;;;;;;;;;7368864;19;20003;-68
2023/09/10 04:05:03;;;;;;;13.80;9.63;;;;;;;;;;7366193;19;20015;-68
2023/09/10 04:07:29;;;;;;;15.43;9.98;;;;;;;;;;7388974;19;20002;-68
2023/09/10 04:09:54;;;;;;;17.15;10.05;;;;;;;;;;7366876;19;20030;-68
2023/09/10 04:12:19;;;;;;;13.95;10.15;;;;;;;;;;7367262;19;20387;-68
2023/09/10 04:14:45;;;;;;;16.70;10.02;;;;;;;;;;7369587;19;20077;-68
2023/09/10 04:17:15;;;;;;;15.88;10.45;;;;;;;;;;7368941;19;19999;-68
2023/09/10 04:19:40;;;;;;;18.23;10.13;;;;;;;;;;7392497;19;20106;-68
2023/09/10 04:22:05;;;;;;;14.77;10.05;;;;;;;;;;7373502;19;20015;-68
2023/09/10 04:24:30;;;;;;;14.07;9.98;;;;;;;;;;7371082;19;20544;-68
2023/09/10 04:26:56;;;;;;;15.60;10.43;;;;;;;;;;7371600;19;20006;-68
2023/09/10 04:29:22;;;;;;;16.48;9.88;;;;;;;;;;7372153;19;20030;-68
2023/09/10 04:31:47;;;;;;;17.17;11.02;;;;;;;;;;7370761;19;20049;-68
2023/09/10 04:34:12;;;;;;;18.77;10.40;;;;;;;;;;7394022;19;20100;-68
2023/09/10 04:36:38;;;;;;;16.58;10.70;;;;;;;;;;7370359;19;20010;-68
2023/09/10 04:39:08;;;;;;;19.13;10.57;;;;;;;;;;7370930;19;20012;-68
2023/09/10 04:41:35;;;;;;;18.30;10.93;;;;;;;;;;7369450;19;20322;-68
2023/09/10 04:44:00;;;;;;;16.45;10.10;;;;;;;;;;7370711;19;20011;-68
2023/09/10 04:46:27;;;;;;;16.67;10.90;;;;;;;;;;7391630;19;20080;-68
2023/09/10 04:48:52;;;;;;;17.70;10.90;;;;;;;;;;7369935;19;20113;-68
2023/09/10 04:51:18;;;;;;;19.70;10.80;;;;;;;;;;7370392;19;20030;-68
2023/09/10 04:53:44;;;;;;;17.60;10.68;;;;;;;;;;7368209;19;20017;-68
2023/09/10 04:56:10;;;;;;;13.27;10.18;;;;;;;;;;7368817;19;20014;-68
2023/09/10 04:58:36;;;;;;;19.48;11.20;;;;;;;;;;7387388;19;20375;-69
2023/09/10 05:01:01;;;;;;;20.05;11.65;;;;;;;;;;7367488;19;20007;-69
2023/09/10 05:03:27;;;;;;;18.17;10.93;;;;;;;;;;7368852;19;20074;-68
2023/09/10 05:05:56;;;;;;;19.38;12.93;;;;;;;;;;7370515;19;20014;-68
2023/09/10 05:08:22;;;;;;;16.83;12.57;;;;;;;;;;7370249;19;20010;-68
2023/09/10 05:10:48;;;;;;;18.02;12.38;;;;;;;;;;7366479;19;20016;-68
2023/09/10 05:13:13;;;;;;;14.70;10.75;;;;;;;;;;7388225;19;20018;-68
2023/09/10 05:15:39;;;;;;;16.42;10.63;;;;;;;;;;7369095;19;20021;-68
2023/09/10 05:18:04;;;;;;;14.82;10.55;;;;;;;;;;7369190;19;20013;-68
2023/09/10 05:20:31;;;;;;;15.30;10.68;;;;;;;;;;7370271;19;20015;-69
2023/09/10 05:22:57;;;;;;;16.35;11.13;;;;;;;;;;7367464;19;20464;-68
2023/09/10 05:25:22;;;;;;;17.10;11.30;;;;;;;;;;7392751;19;20011;-68
2023/09/10 05:27:48;;;;;;;15.07;10.82;;;;;;;;;;7369819;19;20559;-68
2023/09/10 05:30:13;;;;;;;18.25;11.00;;;;;;;;;;7369874;19;20131;-68
2023/09/10 05:32:38;;;;;;;16.90;10.60;;;;;;;;;;7369334;19;20026;-68
2023/09/10 05:35:04;;;;;;;16.27;11.10;;;;;;;;;;7368465;19;20021;-68
2023/09/10 05:37:29;;;;;;;18.25;10.52;;;;;;;;;;7390222;19;20021;-67
2023/09/10 05:39:55;;;;;;;17.52;10.65;;;;;;;;;;7367183;19;20370;-67
2023/09/10 05:42:20;;;;;;;19.45;9.85;;;;;;;;;;7365284;19;20006;-67
2023/09/10 05:44:45;;;;;;;14.75;9.32;;;;;;;;;;7365671;19;20018;-67
2023/09/10 05:47:11;;;;;;;15.73;9.63;;;;;;;;;;7365354;19;20395;-68
2023/09/10 05:49:37;;;;;;;12.38;8.45;;;;;;;;;;7387567;19;20039;-68
2023/09/10 05:52:03;;;;;;;13.32;8.80;;;;;;;;;;7365386;19;20022;-69
2023/09/10 05:54:28;;;;;;;12.50;8.57;;;;;;;;;;7368309;19;20015;-69
2023/09/10 05:56:54;;;;;;;13.20;8.80;;;;;;;;;;7368933;19;20042;-68
2023/09/10 05:59:19;;;;;;;12.18;7.80;;;;;;;;;;7369226;19;20384;-68
2023/09/10 06:01:44;;;;;;;12.70;8.73;;;;;;;;;;7363265;19;20006;-69
2023/09/10 06:04:10;;;;;;;13.10;8.30;;;;;;;;;;7390149;19;20003;-68
2023/09/10 06:06:35;;;;;;;12.43;7.40;;;;;;;;;;7368167;19;20094;-68
2023/09/10 06:09:00;;;;;;;13.35;8.52;;;;;;;;;;7367321;19;21088;-60
2023/09/10 06:11:26;;;;;;;12.07;8.13;;;;;;;;;;7367738;19;20010;-59
2023/09/10 06:13:51;;;;;;;13.55;7.70;;;;;;;;;;7367523;19;20062;-59
2023/09/10 06:16:23;;;;;;;10.23;7.35;;;;;;;;;;7388762;19;20570;-61
2023/09/10 06:18:48;;;;;;;12.20;8.27;;;;;;;;;;7366192;19;20010;-61
2023/09/10 06:21:13;;;;;;;11.82;7.88;;;;;;;;;;7365747;19;20025;-59
2023/09/10 06:23:38;;;;;;;16.00;8.52;;;;;;;;;;7365136;19;20006;-61
2023/09/10 06:26:04;;;;;;;10.73;7.15;;;;;;;;;;7367550;19;20018;-60
2023/09/10 06:28:29;;;;;;;13.65;8.13;;;;;;;;;;7388646;19;20460;-61
2023/09/10 06:30:55;;;;;;;12.15;8.32;;;;;;;;;;7367542;19;19999;-61
2023/09/10 06:33:20;;;;;;;12.90;7.50;;;;;;;;;;7367035;19;20003;-60
2023/09/10 06:35:45;;;;;;;10.70;8.45;;;;;;;;;;7367162;19;20595;-60
2023/09/10 06:38:11;;;;;;;9.82;7.40;;;;;;;;;;7367543;19;20034;-61
2023/09/10 06:40:36;;;;;;;16.05;8.27;;;;;;;;;;7391585;19;20675;-61
2023/09/10 06:43:03;;;;;;;14.63;7.78;;;;;;;;;;7365215;19;20010;-61
2023/09/10 06:45:29;;;;;;;10.82;7.93;;;;;;;;;;7367583;19;20014;-61
2023/09/10 06:47:55;;;;;;;11.05;7.45;;;;;;;;;;7366101;19;20352;-61
2023/09/10 06:50:20;;;;;;;9.70;7.22;;;;;;;;;;7365152;19;20385;-61
2023/09/10 06:52:45;;;;;;;11.70;7.83;;;;;;;;;;7364205;19;19991;-61
2023/09/10 06:55:10;;;;;;;13.13;7.40;;;;;;;;;;7387650;19;20263;-61
2023/09/10 06:57:36;;;;;;;12.93;7.95;;;;;;;;;;7366151;19;20372;-61
2023/09/10 07:00:02;;;;;;;11.82;7.55;;;;;;;;;;7366221;19;20102;-59
2023/09/10 07:02:27;;;;;;;11.98;7.85;;;;;;;;;;7364320;19;20002;-54
2023/09/10 07:04:53;;;;;;;11.95;8.18;;;;;;;;;;7365122;19;20402;-57
2023/09/10 07:07:21;;;;;;;18.15;8.05;;;;;;;;;;7386167;19;20067;-57
2023/09/10 07:09:46;;;;;;;13.63;8.10;;;;;;;;;;7361277;19;20023;-59
2023/09/10 07:12:12;;;;;;;12.80;7.88;;;;;;;;;;7365621;19;20002;-56
2023/09/10 07:14:37;;;;;;;14.38;8.02;;;;;;;;;;7364523;19;20156;-55
2023/09/10 07:17:03;;;;;;;14.73;8.18;;;;;;;;;;7366396;19;20023;-57
2023/09/10 07:19:28;;;;;;;15.07;8.52;;;;;;;;;;7388772;19;20003;-57
2023/09/10 07:21:53;;;;;;;14.27;8.77;;;;;;;;;;7365351;19;20006;-55
2023/09/10 07:24:20;;;;;;;20.25;8.25;;;;;;;;;;7367332;19;20007;-59
2023/09/10 07:26:45;;;;;;;15.95;8.05;;;;;;;;;;7367039;19;20023;-55
2023/09/10 07:29:15;;;;;;;16.17;7.82;;;;;;;;;;7356151;19;20015;-56
2023/09/10 07:31:41;;;;;;;19.58;8.05;;;;;;;;;;7373126;19;20078;-55
2023/09/10 07:34:07;;;;;;;14.70;7.47;;;;;;;;;;7379738;19;20493;-58
2023/09/10 07:36:32;;;;;;;11.88;7.93;;;;;;;;;;7361787;19;20038;-58
2023/09/10 07:38:58;;;;;;;14.65;7.38;;;;;;;;;;7360891;19;20035;-58
2023/09/10 07:41:23;;;;;;;13.80;7.40;;;;;;;;;;7361176;19;20019;-57
2023/09/10 07:43:49;;;;;;;12.15;7.43;;;;;;;;;;7359093;19;20005;-56
2023/09/10 07:46:14;;;;;;;12.77;7.50;;;;;;;;;;7385144;19;20725;-57
2023/09/10 07:48:39;;;;;;;11.77;7.20;;;;;;;;;;7361707;19;20021;-56
2023/09/10 07:51:05;;;;;;;17.17;6.78;;;;;;;;;;7363592;19;20070;-56
2023/09/10 07:53:30;;;;;;;12.63;7.43;;;;;;;;;;7355622;19;20081;-55
2023/09/10 07:55:56;;;;;;;13.13;7.20;;;;;;;;;;7361139;19;20023;-58
2023/09/10 07:58:22;;;;;;;12.27;7.68;;;;;;;;;;7383722;19;20006;-59
2023/09/10 08:00:47;;;;;;;12.27;6.72;;;;;;;;;;7358512;19;20018;-59
2023/09/10 08:03:14;;;;;;;10.55;7.05;;;;;;;;;;7362175;19;20016;-59
2023/09/10 08:05:40;;;;;;;10.93;6.65;;;;;;;;;;7359947;19;20014;-57
2023/09/10 08:08:05;;;;;;;12.88;7.05;;;;;;;;;;7363864;19;20018;-56
2023/09/10 08:10:32;;;;;;;12.98;7.03;;;;;;;;;;7384325;19;20014;-59
2023/09/10 08:12:58;;;;;;;9.60;6.70;;;;;;;;;;7366909;19;20010;-58
2023/09/10 08:15:24;;;;;;;9.00;6.65;;;;;;;;;;7368995;19;20078;-59
2023/09/10 08:17:51;;;;;;;12.85;7.38;;;;;;;;;;7369091;19;20028;-58
2023/09/10 08:20:16;;;;;;;11.00;6.55;;;;;;;;;;7368537;19;20002;-55
2023/09/10 08:22:43;;;;;;;13.43;7.63;;;;;;;;;;7369250;19;20027;-57
2023/09/10 08:25:09;;;;;;;10.93;7.03;;;;;;;;;;7389840;19;20426;-58
2023/09/10 08:27:35;;;;;;;11.82;6.93;;;;;;;;;;7368119;19;20031;-58
2023/09/10 08:30:03;;;;;;;9.95;6.53;;;;;;;;;;7369404;19;20484;-58
2023/09/10 08:32:29;;;;;;;10.93;7.53;;;;;;;;;;7366667;19;20007;-58
2023/09/10 08:34:54;;;;;;;9.23;7.15;;;;;;;;;;7367329;19;20112;-57
2023/09/10 08:37:20;;;;;;;10.45;6.68;;;;;;;;;;7390928;19;20011;-58
2023/09/10 08:39:45;;;;;;;9.65;6.88;;;;;;;;;;7353666;19;20014;-58
2023/09/10 08:42:28;;;;;;;11.60;6.35;;;;;;;;;;7367387;19;20002;-58
2023/09/10 08:45:01;;;;;;;9.18;6.15;;;;;;;;;;7367788;19;20014;-61
2023/09/10 08:47:29;;;;;;;10.05;6.93;;;;;;;;;;7368696;19;20007;-61
2023/09/10 08:50:02;;;;;;;10.40;6.85;;;;;;;;;;7367600;19;20482;-61
2023/09/10 08:52:30;;;;;;;10.32;6.28;;;;;;;;;;7388672;19;20007;-67
2023/09/10 08:54:55;;;;;;;10.32;6.85;;;;;;;;;;7364752;19;20035;-67
2023/09/10 08:57:21;;;;;;;8.60;6.15;;;;;;;;;;7368174;19;20006;-67
2023/09/10 08:59:47;;;;;;;13.63;7.35;;;;;;;;;;7368232;19;20006;-67
2023/09/10 09:02:12;;;;;;;9.25;5.97;;;;;;;;;;7365834;19;20217;-70
2023/09/10 09:04:38;;;;;;;10.98;6.65;;;;;;;;;;7387823;19;20337;-60
2023/09/10 09:07:09;;;;;;;8.43;6.10;;;;;;;;;;7368228;19;20010;-61
2023/09/10 09:09:39;;;;;;;8.25;5.60;;;;;;;;;;7364618;19;20077;-60
2023/09/10 09:12:07;;;;;;;11.10;6.28;;;;;;;;;;7364879;19;20018;-60
2023/09/10 09:14:36;;;;;;;9.55;6.10;;;;;;;;;;7366453;19;20013;-59
2023/09/10 09:17:01;;;;;;;9.93;6.43;;;;;;;;;;7366780;19;20003;-56
2023/09/10 09:19:30;;;;;;;12.02;6.43;;;;;;;;;;7386677;19;20007;-60
2023/09/10 09:21:57;;;;;;;9.98;5.47;;;;;;;;;;7362222;19;20010;-60
2023/09/10 09:24:24;;;;;;;9.30;6.65;;;;;;;;;;7365342;19;20473;-60
2023/09/10 09:26:52;;;;;;;9.95;5.95;;;;;;;;;;7365391;19;20007;-60
2023/09/10 09:29:19;;;;;;;9.93;5.88;;;;;;;;;;7366014;19;20128;-60
2023/09/10 09:31:44;;;;;;;9.10;6.40;;;;;;;;;;7364281;19;20638;-60
2023/09/10 09:34:10;;;;;;;8.43;6.28;;;;;;;;;;7385705;19;20006;-60
2023/09/10 09:36:39;;;;;;;8.80;5.38;;;;;;;;;;7367771;19;20497;-61
2023/09/10 09:39:07;;;;;;;7.88;6.15;;;;;;;;;;7366254;19;20010;-64
2023/09/10 09:41:35;;;;;;;10.43;6.60;;;;;;;;;;7367281;19;20010;-61
2023/09/10 09:44:03;;;;;;;9.20;5.70;;;;;;;;;;7366371;19;20037;-59
2023/09/10 09:46:32;;;;;;;11.45;6.63;;;;;;;;;;7388605;19;20009;-61
2023/09/10 09:48:58;;;;;;;8.75;5.75;;;;;;;;;;7365282;19;20006;-61
2023/09/10 09:51:23;;;;;;;7.93;5.85;;;;;;;;;;7365777;19;20007;-60
2023/09/10 09:53:48;;;;;;;9.68;5.65;;;;;;;;;;7363834;19;20010;-61
2023/09/10 09:56:16;;;;;;;9.18;6.03;;;;;;;;;;7365799;19;20412;-57
2023/09/10 09:58:44;;;;;;;8.13;5.43;;;;;;;;;;7371951;19;20357;-61
2023/09/10 10:01:09;;;;;;;8.20;5.97;;;;;;;;;;7385696;19;20007;-59
2023/09/10 10:03:37;;;;;;;8.25;5.70;;;;;;;;;;7364256;19;20006;-60
2023/09/10 10:06:02;;;;;;;9.02;5.05;;;;;;;;;;7366059;19;20002;-61
2023/09/10 10:08:29;;;;;;;10.27;5.93;;;;;;;;;;7368459;19;20039;-60
2023/09/10 10:10:54;;;;;;;8.80;6.63;;;;;;;;;;7366770;19;20495;-60
2023/09/10 10:13:22;;;;;;;7.82;5.43;;;;;;;;;;7386348;19;20010;-58
2023/09/10 10:15:50;;;;;;;8.05;5.13;;;;;;;;;;7365836;19;20002;-61
2023/09/10 10:18:16;;;;;;;7.80;5.10;;;;;;;;;;7367042;19;20006;-61
2023/09/10 10:20:47;;;;;;;8.45;5.68;;;;;;;;;;7368483;19;20039;-60
2023/09/10 10:23:14;;;;;;;7.93;5.63;;;;;;;;;;7364963;19;20006;-61
2023/09/10 10:25:43;;;;;;;7.90;5.10;;;;;;;;;;7387411;19;20123;-62
2023/09/10 10:28:09;;;;;;;6.53;5.05;;;;;;;;;;7365358;19;20675;-61
2023/09/10 10:30:41;;;;;;;6.78;5.00;;;;;;;;;;7366181;19;20503;-59
2023/09/10 10:33:10;;;;;;;9.05;5.20;;;;;;;;;;7361171;19;20058;-61
2023/09/10 10:35:41;;;;;;;6.78;4.38;;;;;;;;;;7365593;19;20002;-61
2023/09/10 10:38:08;;;;;;;6.90;4.75;;;;;;;;;;7363679;19;20002;-60
2023/09/10 10:40:43;;;;;;;6.53;4.80;;;;;;;;;;7387204;19;20005;-60
2023/09/10 10:43:13;;;;;;;6.88;5.13;;;;;;;;;;7362463;19;20090;-60
2023/09/10 10:45:39;;;;;;;7.43;4.47;;;;;;;;;;7364663;19;20488;-60
2023/09/10 10:48:09;;;;;;;6.63;4.35;;;;;;;;;;7361838;19;20098;-61
2023/09/10 10:50:35;;;;;;;7.43;4.60;;;;;;;;;;7362372;19;20002;-61
2023/09/10 10:53:39;;;;;;;6.03;4.25;;;;;;;;;;7361186;19;20007;-59
2023/09/10 10:56:06;;;;;;;9.68;4.53;;;;;;;;;;7362173;19;20062;-59
2023/09/10 10:58:34;;;;;;;8.50;4.60;;;;;;;;;;7386149;19;20062;-59
2023/09/10 11:01:01;;;;;;;7.50;4.43;;;;;;;;;;7361552;19;20003;-59
2023/09/10 11:03:26;;;;;;;7.50;4.40;;;;;;;;;;7361428;19;20007;-67
2023/09/10 11:05:52;;;;;;;8.63;4.47;;;;;;;;;;7363257;19;20559;-68
2023/09/10 11:08:37;;;;;;;7.10;4.47;;;;;;;;;;7364330;19;20483;-68
2023/09/10 11:11:08;;;;;;;7.97;4.78;;;;;;;;;;7364028;19;20023;-68
2023/09/10 11:13:34;;;;;;;6.95;4.45;;;;;;;;;;7386105;19;20078;-68
2023/09/10 11:16:05;;;;;;;5.88;3.72;;;;;;;;;;7366781;19;20429;-67
2023/09/10 11:18:39;;;;;;;7.45;4.07;;;;;;;;;;7368406;19;20007;-67
2023/09/10 11:21:10;;;;;;;7.43;4.65;;;;;;;;;;7368771;19;20583;-67
2023/09/10 11:23:37;;;;;;;7.85;4.30;;;;;;;;;;7365824;19;20759;-66
2023/09/10 11:26:14;;;;;;;9.73;4.35;;;;;;;;;;7367675;19;20045;-68
2023/09/10 11:28:47;;;;;;;9.95;3.60;;;;;;;;;;7387612;19;20006;-68
2023/09/10 11:31:46;;;;;;;8.95;4.15;;;;;;;;;;7366763;19;19998;-69
2023/09/10 11:34:15;;;;;;;13.45;3.90;;;;;;;;;;7366331;19;20017;-68
2023/09/10 11:36:45;;;;;;;9.70;3.45;;;;;;;;;;7366115;19;20018;-68
2023/09/10 11:39:15;;;;;;;10.55;4.38;;;;;;;;;;7366948;19;20005;-68
2023/09/10 11:41:45;;;;;;;7.05;3.95;;;;;;;;;;7366276;19;20031;-68
2023/09/10 11:44:11;;;;;;;6.88;3.88;;;;;;;;;;7366644;19;20032;-68
2023/09/10 11:46:37;;;;;;;7.15;3.95;;;;;;;;;;7393721;19;20011;-68
2023/09/10 11:49:03;;;;;;;9.27;4.13;;;;;;;;;;7373604;19;20035;-68
2023/09/10 11:51:29;;;;;;;6.93;3.95;;;;;;;;;;7372899;19;20020;-68
2023/09/10 11:53:55;;;;;;;10.45;3.88;;;;;;;;;;7375000;19;20042;-69
2023/09/10 11:56:23;;;;;;;11.05;4.00;;;;;;;;;;7373914;19;20010;-68
2023/09/10 11:58:48;;;;;;;7.97;3.80;;;;;;;;;;7374533;19;19995;-68
2023/09/10 12:01:14;;;;;;;11.10;4.30;;;;;;;;;;7385164;19;20002;-69
2023/09/10 12:03:44;;;;;;;8.80;3.65;;;;;;;;;;7366610;19;20035;-68
2023/09/10 12:06:12;;;;;;;;;;;;;;;;;;7367146;19;20070;-67
2023/09/10 12:08:38;;;;;;;11.90;4.03;;;;;;;;;;7369400;19;19921;-68
2023/09/10 12:11:08;;;;;;;8.98;4.22;;;;;;;;;;7365652;19;20361;-67
2023/09/10 12:13:35;;;;;;;9.63;3.78;;;;;;;;;;7387638;19;19999;-69
2023/09/10 12:16:01;;;;;;;9.52;3.67;;;;;;;;;;7366040;19;20010;-68
2023/09/10 12:18:27;;;;;;;11.35;3.75;;;;;;;;;;7369901;19;20046;-68
2023/09/10 12:20:52;;;;;;;12.73;3.92;;;;;;;;;;7367976;19;20028;-68
2023/09/10 12:23:17;;;;;;;6.43;3.50;;;;;;;;;;7365906;19;20002;-68
2023/09/10 12:25:43;;;;;;;9.85;3.58;;;;;;;;;;7367428;19;20010;-68
2023/09/10 12:28:08;;;;;;;9.10;3.50;;;;;;;;;;7390708;19;20002;-68
2023/09/10 12:30:36;;;;;;;10.50;4.38;;;;;;;;;;7366215;19;20043;-69
2023/09/10 12:33:02;;;;;;;13.35;3.47;;;;;;;;;;7366974;19;20423;-67
2023/09/10 12:35:28;;;;;;;11.38;3.53;;;;;;;;;;7369156;19;20014;-68
2023/09/10 12:37:54;;;;;;;11.25;4.10;;;;;;;;;;7366957;19;20015;-68
2023/09/10 12:40:20;;;;;;;11.32;3.17;;;;;;;;;;7391388;19;20537;-67
2023/09/10 12:42:46;;;;;;;11.60;3.53;;;;;;;;;;7365730;19;20014;-68
2023/09/10 12:45:13;;;;;;;9.20;3.50;;;;;;;;;;7365977;19;20007;-68
2023/09/10 12:47:38;;;;;;;14.57;4.05;;;;;;;;;;7366639;19;20009;-67
2023/09/10 12:50:05;;;;;;;6.18;3.50;;;;;;;;;;7366086;19;20014;-67
2023/09/10 12:52:31;;;;;;;7.85;3.60;;;;;;;;;;7386283;19;20038;-67
2023/09/10 12:54:56;;;;;;;11.93;4.13;;;;;;;;;;7365838;19;20385;-67
2023/09/10 12:57:22;;;;;;;9.15;4.00;;;;;;;;;;7364862;19;20011;-68
2023/09/10 12:59:56;;;;;;;9.68;3.65;;;;;;;;;;7367445;19;20011;-68
2023/09/10 13:02:29;;;;;;;10.90;3.58;;;;;;;;;;7364149;19;20367;-69
2023/09/10 13:04:54;;;;;;;10.80;3.60;;;;;;;;;;7366485;19;19998;-68
2023/09/10 13:07:20;;;;;;;12.23;3.20;;;;;;;;;;7388614;19;20022;-67
2023/09/10 13:09:46;;;;;;;6.97;3.72;;;;;;;;;;7366060;19;20010;-68
2023/09/10 13:12:11;;;;;;;10.55;3.78;;;;;;;;;;7364538;19;20460;-68
2023/09/10 13:14:39;;;;;;;11.00;3.65;;;;;;;;;;7366101;19;20010;-67
2023/09/10 13:17:08;;;;;;;10.70;3.97;;;;;;;;;;7366205;19;20026;-68
2023/09/10 13:19:33;;;;;;;9.50;3.83;;;;;;;;;;7388447;19;20027;-68
2023/09/10 13:21:58;;;;;;;12.10;3.90;;;;;;;;;;7362588;19;20007;-68
2023/09/10 13:24:24;;;;;;;11.68;4.75;;;;;;;;;;7365711;19;20007;-67
2023/09/10 13:26:49;;;;;;;9.18;4.68;;;;;;;;;;7366909;19;20006;-68
2023/09/10 13:29:15;;;;;;;8.43;3.78;;;;;;;;;;7365053;19;20229;-68
2023/09/10 13:31:40;;;;;;;9.05;3.53;;;;;;;;;;7384227;19;20031;-68
2023/09/10 13:34:06;;;;;;;14.95;4.38;;;;;;;;;;7372163;19;20469;-68
2023/09/10 13:36:31;;;;;;;11.23;3.92;;;;;;;;;;7364230;19;20491;-68
2023/09/10 13:38:56;;;;;;;9.95;4.45;;;;;;;;;;7366830;19;20572;-69
2023/09/10 13:41:22;;;;;;;9.27;3.65;;;;;;;;;;7365514;19;20010;-68
2023/09/10 13:43:49;;;;;;;11.35;4.00;;;;;;;;;;7366907;19;20456;-67
2023/09/10 13:46:14;;;;;;;9.20;3.88;;;;;;;;;;7388067;19;19995;-68
2023/09/10 13:48:39;;;;;;;8.30;3.70;;;;;;;;;;7365586;19;20109;-67
2023/09/10 13:51:05;;;;;;;13.88;4.38;;;;;;;;;;7365301;19;20146;-68
2023/09/10 13:53:31;;;;;;;9.85;3.55;;;;;;;;;;7364411;19;20456;-67
2023/09/10 13:55:56;;;;;;;7.78;4.20;;;;;;;;;;7366263;19;20448;-67
2023/09/10 13:58:22;;;;;;;11.02;3.97;;;;;;;;;;7381726;19;20058;-68
2023/09/10 14:00:47;;;;;;;8.75;3.60;;;;;;;;;;7365928;19;19994;-68
2023/09/10 14:03:12;;;;;;;7.85;3.53;;;;;;;;;;7365324;19;20050;-67
2023/09/10 14:05:38;;;;;;;7.32;3.85;;;;;;;;;;7366788;19;20516;-66
2023/09/10 14:08:04;;;;;;;10.23;4.18;;;;;;;;;;7363056;19;20455;-65
2023/09/10 14:10:29;;;;;;;11.90;3.75;;;;;;;;;;7384620;19;20130;-68
2023/09/10 14:12:54;;;;;;;12.25;3.85;;;;;;;;;;7365375;19;20010;-68
2023/09/10 14:15:20;;;;;;;6.77;3.77;;;;;;;;;;7366971;19;20031;-68
2023/09/10 14:17:45;;;;;;;8.23;3.88;;;;;;;;;;7371928;19;20236;-67
2023/09/10 14:20:11;;;;;;;10.82;4.55;;;;;;;;;;7373473;19;20074;-68
2023/09/10 14:22:37;;;;;;;10.30;3.92;;;;;;;;;;7390057;19;20371;-60
2023/09/10 14:25:03;;;;;;;13.98;4.25;;;;;;;;;;7365111;19;20014;-62
2023/09/10 14:27:28;;;;;;;10.75;4.10;;;;;;;;;;7363165;19;20014;-62